Terminal Aerodrome Forecast
Issued by NWS

Home | Current Version | Previous Version | Text Only | Print | Product List | Glossary On
Versions: 1 2 3 4 5 6 7 8 9 10 11 12 13 14 15 16 17 18 19 20 21 22 23 24 25 26 27
000
FTUS45 KRIW 220500
TAFPNA
TAF
KPNA 220539Z 2206/2306 30012KT P6SM VCSH SCT035 BKN080
     FM220900 29009KT 5SM -SHSN SCT018 BKN030
     FM221900 30017G25KT P6SM VCSH SCT030 BKN060
     FM230300 31012G18KT P6SM SCT060
      AMD LTD TO CLD VIS AND WIND=

USA.gov is the U.S. government's official web portal to all federal, state and local government web resources and services.